Time;durP1;ratioP1;P1;durP2;ratioP2;P2;SDS_P1;SDS_P2;PMS_P1;PMS_P2;Temp;Humidity;BMP_temperature;BMP_pressure;BME280_temperature;BME280_humidity;BME280_pressure;Samples;Min_cycle;Max_cycle;Signal;HPM_P1;HPM_P2
2022/05/23 00:01:30;;;;;;;6.72;4.97;;;;;;;13.24;100.00;96963.31;5092568;28;20020;-88
2022/05/23 00:03:56;;;;;;;16.90;5.30;;;;;;;13.26;100.00;96964.03;5091809;28;20093;-88
2022/05/23 00:06:22;;;;;;;10.75;5.47;;;;;;;13.17;100.00;96963.94;5091466;28;20126;-88
2022/05/23 00:08:49;;;;;;;17.88;6.28;;;;;;;13.08;100.00;96949.41;5091848;28;20051;-88
2022/05/23 00:11:16;;;;;;;13.77;5.32;;;;;;;13.13;100.00;96971.41;5075062;28;20131;-88
2022/05/23 00:13:43;;;;;;;11.77;5.43;;;;;;;12.97;100.00;96938.69;5091451;28;20036;-87
2022/05/23 00:16:09;;;;;;;12.27;5.60;;;;;;;13.17;100.00;96971.97;5091924;28;20028;-87
2022/05/23 00:18:34;;;;;;;8.48;5.10;;;;;;;13.08;100.00;96952.09;5091110;28;20031;-86
2022/05/23 00:21:00;;;;;;;9.93;5.25;;;;;;;13.13;100.00;96952.59;5090990;28;20019;-88
2022/05/23 00:23:26;;;;;;;6.97;5.35;;;;;;;13.20;100.00;96953.78;5074401;28;20028;-88
2022/05/23 00:25:51;;;;;;;6.70;5.07;;;;;;;13.23;100.00;96961.59;5090547;28;20081;-88
2022/05/23 00:28:18;;;;;;;7.50;5.43;;;;;;;13.13;100.00;96943.69;5092717;28;20194;-88
2022/05/23 00:30:45;;;;;;;10.48;5.65;;;;;;;13.12;100.00;96967.00;5091540;28;20046;-88
2022/05/23 00:35:55;;;;;;;8.93;5.85;;;;;;;12.84;100.00;96946.00;5087194;28;20164;-88
2022/05/23 00:38:21;;;;;;;8.02;5.45;;;;;;;12.73;100.00;96946.91;5091855;28;20073;-88
2022/05/23 00:43:13;;;;;;;15.85;5.85;;;;;;;12.83;100.00;96963.09;5091457;28;20511;-88
2022/05/23 00:43:38;;;;;;;9.70;5.35;;;;;;;12.67;100.00;96946.53;5089271;28;20150;-89
2022/05/23 00:46:22;;;;;;;13.27;6.07;;;;;;;12.49;100.00;96927.34;5091684;28;20028;-89
2022/05/23 00:48:48;;;;;;;10.15;6.20;;;;;;;12.59;100.00;96946.25;5072328;28;20032;-89
2022/05/23 00:51:15;;;;;;;10.88;5.90;;;;;;;12.55;100.00;96947.50;5091909;28;20039;-89
2022/05/23 00:54:03;;;;;;;12.75;6.15;;;;;;;12.43;100.00;96925.16;5086936;28;20024;-90
2022/05/23 00:56:43;;;;;;;13.15;6.40;;;;;;;12.68;100.00;96958.94;5090667;28;20475;-89
2022/05/23 00:59:10;;;;;;;6.80;5.82;;;;;;;12.50;100.00;96940.66;5074912;28;20105;-88
2022/05/23 01:01:37;;;;;;;10.10;6.28;;;;;;;12.66;100.00;96955.53;5092124;28;20113;-87
2022/05/23 01:04:05;;;;;;;8.93;5.93;;;;;;;12.69;100.00;96952.63;5078462;28;20028;-88
2022/05/23 01:06:30;;;;;;;10.07;6.03;;;;;;;12.67;100.00;96949.22;5094900;28;20048;-87
2022/05/23 01:08:56;;;;;;;9.20;5.40;;;;;;;12.60;100.00;96956.03;5095138;28;20136;-88
2022/05/23 01:11:23;;;;;;;11.20;6.30;;;;;;;12.50;100.00;96956.75;5078624;28;20020;-88
2022/05/23 01:13:48;;;;;;;9.45;5.93;;;;;;;12.45;100.00;96950.91;5095730;28;20032;-87
2022/05/23 01:16:14;;;;;;;11.63;6.30;;;;;;;12.42;100.00;96942.25;5095319;28;20096;-87
2022/05/23 01:18:40;;;;;;;6.68;5.30;;;;;;;12.37;100.00;96945.28;5095102;28;20039;-88
2022/05/23 01:21:14;;;;;;;9.32;5.80;;;;;;;12.36;100.00;96945.41;5079302;28;20111;-87
2022/05/23 01:23:59;;;;;;;10.60;6.53;;;;;;;12.30;100.00;96941.41;5095233;28;20043;-88
2022/05/23 01:26:35;;;;;;;9.75;6.43;;;;;;;12.40;100.00;96954.91;5071203;28;20105;-88
2022/05/23 01:29:00;;;;;;;9.63;6.20;;;;;;;12.44;100.00;96954.56;5077777;28;20020;-88
2022/05/23 01:31:32;;;;;;;9.32;6.05;;;;;;;12.20;100.00;96942.22;5078571;28;20047;-88
2022/05/23 01:34:43;;;;;;;7.68;5.70;;;;;;;12.16;100.00;96949.66;5095253;28;20622;-88
2022/05/23 01:37:08;;;;;;;12.48;6.90;;;;;;;11.95;100.00;96927.19;5085489;28;20392;-88
2022/05/23 01:39:34;;;;;;;10.48;7.00;;;;;;;12.05;100.00;96944.28;5094837;28;20036;-88
2022/05/23 01:41:59;;;;;;;9.32;6.78;;;;;;;12.08;100.00;96943.19;5094341;28;20028;-89
2022/05/23 01:44:27;;;;;;;8.68;6.30;;;;;;;12.10;100.00;96946.59;5094266;28;20028;-89
2022/05/23 01:47:07;;;;;;;9.65;6.72;;;;;;;12.14;100.00;96945.38;5077895;28;20019;-88
2022/05/23 01:49:32;;;;;;;10.88;6.43;;;;;;;12.12;100.00;96939.31;5093353;28;20028;-89
2022/05/23 01:51:58;;;;;;;9.10;6.75;;;;;;;12.11;100.00;96930.41;5094905;28;20032;-88
2022/05/23 01:54:24;;;;;;;10.88;6.80;;;;;;;12.16;100.00;96938.94;5111774;28;20020;-89
2022/05/23 01:56:49;;;;;;;9.38;6.35;;;;;;;12.05;100.00;96930.03;5094620;28;20024;-88
2022/05/23 02:01:59;;;;;;;9.00;6.43;;;;;;;12.07;100.00;96950.38;5108490;28;21439;-89
2022/05/23 02:04:24;;;;;;;10.63;6.00;;;;;;;12.05;100.00;96944.28;5094617;28;20032;-89
2022/05/23 02:06:50;;;;;;;8.52;6.50;;;;;;;11.97;100.00;96941.31;5094022;28;20044;-88
2022/05/23 02:09:16;;;;;;;9.18;6.55;;;;;;;11.95;100.00;96945.97;5094679;28;20028;-88
2022/05/23 02:11:41;;;;;;;9.77;6.38;;;;;;;11.87;100.00;96941.16;5094637;28;20032;-90
2022/05/23 02:14:07;;;;;;;8.95;5.72;;;;;;;11.78;100.00;96943.72;5076722;28;20036;-88
2022/05/23 02:16:35;;;;;;;8.20;6.57;;;;;;;11.58;100.00;96920.22;5077987;28;20031;-89
2022/05/23 02:19:01;;;;;;;12.68;6.18;;;;;;;11.76;100.00;96948.31;5078235;28;20061;-87
2022/05/23 02:21:26;;;;;;;11.52;6.97;;;;;;;11.81;100.00;96946.19;5076991;28;20035;-88
2022/05/23 02:23:52;;;;;;;10.52;6.40;;;;;;;11.79;100.00;96932.03;5094138;28;20031;-87
2022/05/23 02:26:18;;;;;;;9.20;6.07;;;;;;;11.79;100.00;96921.31;5094555;28;20043;-87
2022/05/23 02:28:53;;;;;;;10.20;6.20;;;;;;;11.84;100.00;96914.59;5094317;28;20364;-88
2022/05/23 02:31:19;;;;;;;9.18;6.95;;;;;;;11.84;100.00;96917.28;5093544;28;20583;-87
2022/05/23 02:33:44;;;;;;;12.35;6.35;;;;;;;11.95;100.00;96946.81;5093867;28;20024;-87
2022/05/23 02:36:10;;;;;;;11.65;7.00;;;;;;;11.97;100.00;96935.97;5094708;28;20062;-89
2022/05/23 02:38:36;;;;;;;11.13;7.03;;;;;;;12.00;100.00;96930.34;5096028;28;20072;-89
2022/05/23 02:41:01;;;;;;;9.60;6.93;;;;;;;12.19;100.00;96936.00;5077878;28;20031;-88
2022/05/23 02:43:27;;;;;;;12.95;6.88;;;;;;;12.26;100.00;96945.28;5095278;28;20053;-88
2022/05/23 02:45:53;;;;;;;16.65;6.88;;;;;;;12.21;100.00;96944.78;5094511;28;20107;-89
2022/05/23 02:48:18;;;;;;;12.35;6.90;;;;;;;12.24;100.00;96970.50;5094618;28;20028;-89
2022/05/23 02:50:45;;;;;;;18.27;6.88;;;;;;;11.91;100.00;96929.25;5095014;28;20059;-89
2022/05/23 02:53:29;;;;;;;14.07;6.97;;;;;;;11.90;100.00;96951.66;5095860;28;20028;-89
2022/05/23 02:55:55;;;;;;;11.15;6.43;;;;;;;11.70;100.00;96913.97;5095835;28;20027;-89
2022/05/23 03:01:13;;;;;;;14.88;7.22;;;;;;;11.79;100.00;96921.31;5082351;28;20061;-89
2022/05/23 03:03:39;;;;;;;17.30;6.47;;;;;;;12.04;100.00;96950.59;5076616;28;20023;-85
2022/05/23 03:06:08;;;;;;;14.40;6.00;;;;;;;11.94;100.00;96930.84;5096986;28;20039;-86
2022/05/23 03:08:35;;;;;;;15.68;6.80;;;;;;;12.15;100.00;96955.97;5113325;28;20021;-85
2022/05/23 03:11:03;;;;;;;12.57;5.90;;;;;;;12.14;100.00;96954.28;5097823;28;20046;-87
2022/05/23 03:13:29;;;;;;;15.10;5.80;;;;;;;12.23;100.00;96956.25;5094969;28;20111;-86
2022/05/23 03:15:55;;;;;;;17.70;6.00;;;;;;;12.25;100.00;96948.06;5113199;28;20445;-85
2022/05/23 03:18:23;;;;;;;15.95;5.97;;;;;;;12.26;100.00;96945.28;5095784;28;20024;-86
2022/05/23 03:20:55;;;;;;;11.93;6.00;;;;;;;12.44;100.00;96945.66;5094347;28;20028;-86
2022/05/23 03:28:49;;;;;;;15.85;6.07;;;;;;;12.55;100.00;96940.28;5092026;28;20031;-86
2022/05/23 03:31:14;;;;;;;11.10;6.10;;;;;;;12.63;100.00;96940.53;5094009;28;20408;-86
2022/05/23 03:33:40;;;;;;;29.50;7.97;;;;;;;12.88;100.00;96952.84;5075544;28;20511;-85
2022/05/23 03:36:08;;;;;;;21.10;7.20;;;;;;;13.01;100.00;96948.22;5090911;28;20031;-80
2022/05/23 03:38:35;;;;;;;13.73;6.25;;;;;;;12.86;100.00;96944.91;5089945;28;20476;-81
2022/05/23 03:41:09;;;;;;;14.65;7.05;;;;;;;12.95;100.00;96948.72;5073413;28;20034;-80
2022/05/23 03:43:35;;;;;;;14.70;6.88;;;;;;;12.93;100.00;96939.91;5091395;28;20032;-80
2022/05/23 03:46:08;;;;;;;13.52;7.00;;;;;;;12.89;100.00;96941.97;5090429;28;20399;-82
2022/05/23 03:48:34;;;;;;;20.17;6.88;;;;;;;13.07;100.00;96944.16;5090019;28;20483;-81
2022/05/23 03:51:00;;;;;;;10.60;6.72;;;;;;;13.29;100.00;96938.78;5090317;28;20085;-81
2022/05/23 03:53:26;;;;;;;9.70;5.97;;;;;;;13.48;100.00;96933.56;5090097;28;20047;-81
2022/05/23 03:55:52;;;;;;;16.23;6.93;;;;;;;13.45;100.00;96934.69;5103987;28;20568;-81
2022/05/23 03:58:18;;;;;;;24.58;8.43;;;;;;;13.62;100.00;96940.47;5089734;28;20028;-81
2022/05/23 04:00:49;;;;;;;15.15;8.70;;;;;;;13.67;100.00;96930.19;5089636;28;20399;-84
2022/05/23 04:03:19;;;;;;;12.35;6.78;;;;;;;13.86;100.00;96943.78;5090396;28;20024;-82
2022/05/23 04:05:45;;;;;;;15.40;7.50;;;;;;;13.98;100.00;96938.22;5090377;28;20054;-83
2022/05/23 04:08:11;;;;;;;11.77;7.50;;;;;;;13.96;100.00;96923.22;5107702;28;20027;-80
2022/05/23 04:10:39;;;;;;;14.70;6.75;;;;;;;14.11;100.00;96927.28;5073374;28;20055;-82
2022/05/23 04:13:04;;;;;;;14.38;7.32;;;;;;;14.26;100.00;96930.47;5090699;28;20030;-81
2022/05/23 04:15:31;;;;;;;15.30;7.97;;;;;;;14.39;100.00;96931.16;5089791;28;20438;-82
2022/05/23 04:17:57;;;;;;;30.45;9.73;;;;;;;14.56;100.00;96934.06;5090173;28;20032;-84
2022/05/23 04:20:22;;;;;;;20.10;8.73;;;;;;;14.58;100.00;96931.25;5075377;28;20110;-83
2022/05/23 04:22:48;;;;;;;27.13;7.82;;;;;;;14.86;100.00;96932.38;5090189;28;20555;-82
2022/05/23 04:25:14;;;;;;;21.90;7.80;;;;;;;14.69;99.66;96927.59;5089852;28;20488;-83
2022/05/23 04:27:39;;;;;;;16.77;8.00;;;;;;;14.88;100.00;96933.06;5089317;28;20399;-81
2022/05/23 04:30:07;;;;;;;28.38;7.05;;;;;;;14.80;98.39;96940.94;5089520;28;20056;-82
2022/05/23 04:35:18;;;;;;;35.45;7.60;;;;;;;16.59;88.85;96938.69;5088594;28;20042;-82
2022/05/23 04:37:45;;;;;;;11.70;6.53;;;;;;;16.42;84.85;96944.81;5074388;28;20027;-82
2022/05/23 04:40:16;;;;;;;18.60;7.38;;;;;;;16.00;88.86;96941.59;5110635;28;20020;-82
2022/05/23 04:42:42;;;;;;;20.90;8.23;;;;;;;15.81;91.20;96938.94;5110790;28;20028;-82
2022/05/23 04:45:09;;;;;;;10.48;6.90;;;;;;;15.61;90.11;96928.13;5093674;28;20028;-82
2022/05/23 04:50:19;;;;;;;19.50;7.70;;;;;;;15.40;93.70;96926.53;5093778;28;20034;-81
2022/05/23 04:52:46;;;;;;;19.52;8.57;;;;;;;15.69;94.41;96922.88;5076391;28;20418;-81
2022/05/23 04:55:12;;;;;;;20.50;8.02;;;;;;;16.71;89.15;96932.09;5093021;28;20035;-81
2022/05/23 04:57:37;;;;;;;22.73;7.38;;;;;;;18.86;74.95;96927.31;5110474;28;20028;-81
2022/05/23 05:00:06;;;;;;;22.80;8.48;;;;;;;20.74;65.91;96931.06;5094254;28;20035;-81
2022/05/23 05:02:36;;;;;;;13.95;7.97;;;;;;;20.61;62.14;96924.50;5092982;28;20032;-82
2022/05/23 05:05:03;;;;;;;15.40;7.18;;;;;;;20.44;64.23;96940.81;5092606;28;20407;-81
2022/05/23 05:07:28;;;;;;;12.45;6.40;;;;;;;20.28;64.07;96929.09;5093788;28;20961;-81
2022/05/23 05:09:54;;;;;;;12.73;7.05;;;;;;;20.53;62.37;96923.47;5093036;28;20028;-82
2022/05/23 05:12:21;;;;;;;14.63;7.85;;;;;;;19.26;66.64;96926.63;5092802;28;20123;-82
2022/05/23 05:14:46;;;;;;;23.35;7.95;;;;;;;19.94;66.15;96934.63;5092810;28;20411;-82
2022/05/23 05:17:12;;;;;;;11.73;6.93;;;;;;;21.52;58.89;96914.84;5092835;28;20028;-81
2022/05/23 05:19:38;;;;;;;16.92;6.03;;;;;;;22.91;53.05;96909.00;5093056;28;20016;-82
2022/05/23 05:22:03;;;;;;;10.48;6.43;;;;;;;24.08;50.62;96913.44;5094406;28;20020;-82
2022/05/23 05:24:32;;;;;;;14.13;7.60;;;;;;;25.21;47.92;96912.31;5075531;28;20476;-82
2022/05/23 05:27:01;;;;;;;10.32;6.20;;;;;;;26.07;44.71;96907.22;5092856;28;20051;-82
2022/05/23 05:29:27;;;;;;;10.05;6.05;;;;;;;25.93;45.03;96884.41;5092352;28;20452;-82
2022/05/23 05:32:02;;;;;;;13.15;6.30;;;;;;;25.95;44.73;96901.50;5092560;28;20089;-82
2022/05/23 05:34:32;;;;;;;16.05;7.28;;;;;;;27.21;42.70;96889.53;5075625;28;20034;-82
2022/05/23 05:37:04;;;;;;;17.63;8.85;;;;;;;27.75;41.54;96894.63;5093872;28;20024;-82
2022/05/23 05:39:31;;;;;;;12.18;8.15;;;;;;;28.10;40.71;96900.63;5075565;28;20045;-83
2022/05/23 05:41:59;;;;;;;25.35;10.48;;;;;;;29.14;39.69;96893.47;5109424;28;20467;-82
2022/05/23 05:44:29;;;;;;;23.77;9.88;;;;;;;29.57;38.20;96880.50;5092374;28;20447;-82
2022/05/23 05:46:59;;;;;;;31.30;11.52;;;;;;;30.40;36.51;96888.13;5092312;28;20102;-83
2022/05/23 05:49:27;;;;;;;22.17;11.65;;;;;;;30.49;36.38;96876.50;5091892;28;20020;-84
2022/05/23 05:51:54;;;;;;;21.92;9.10;;;;;;;29.87;36.72;96882.50;5092606;28;20376;-82
2022/05/23 05:54:23;;;;;;;19.00;9.00;;;;;;;29.45;37.85;96878.75;5092112;28;20047;-81
2022/05/23 05:56:50;;;;;;;12.52;8.07;;;;;;;29.18;37.47;96877.31;5092084;28;20042;-83
2022/05/23 05:59:15;;;;;;;12.75;8.38;;;;;;;29.46;37.97;96875.78;5091892;28;20526;-82
2022/05/23 06:01:41;;;;;;;15.93;7.70;;;;;;;30.76;35.41;96865.91;5091661;28;20059;-82
2022/05/23 06:04:07;;;;;;;17.50;7.85;;;;;;;29.74;36.91;96868.84;5075197;28;20032;-82
2022/05/23 06:12:00;;;;;;;13.05;7.22;;;;;;;30.92;35.58;96867.06;5091981;28;20107;-82
2022/05/23 06:14:26;;;;;;;22.58;7.35;;;;;;;30.87;35.47;96872.50;5074562;28;20047;-82
2022/05/23 06:16:51;;;;;;;13.52;7.38;;;;;;;32.37;33.23;96865.00;5092799;28;20094;-83
2022/05/23 06:19:17;;;;;;;15.13;7.00;;;;;;;32.16;33.27;96859.09;5091550;28;20028;-83
2022/05/23 06:21:43;;;;;;;27.70;7.47;;;;;;;32.67;32.66;96855.34;5091793;28;20024;-83
2022/05/23 06:24:08;;;;;;;16.02;7.90;;;;;;;32.10;33.06;96850.94;5091608;28;20031;-82
2022/05/23 06:26:34;;;;;;;15.23;8.52;;;;;;;32.92;32.22;96862.38;5091386;28;20038;-80
2022/05/23 06:28:59;;;;;;;28.88;14.50;;;;;;;33.49;31.86;96854.69;5091807;28;20028;-83
2022/05/23 06:31:25;;;;;;;32.42;15.15;;;;;;;32.91;32.00;96857.97;5091455;28;20088;-82
2022/05/23 06:33:51;;;;;;;24.38;13.68;;;;;;;34.14;30.57;96849.19;5091287;28;20067;-82
2022/05/23 06:36:17;;;;;;;53.58;15.25;;;;;;;34.01;30.64;96857.88;5074530;28;20507;-81
2022/05/23 06:38:43;;;;;;;26.25;12.50;;;;;;;34.66;30.21;96849.44;5091357;28;20024;-81
2022/05/23 06:41:10;;;;;;;18.70;10.10;;;;;;;34.94;29.87;96856.63;5091245;28;20028;-81
2022/05/23 06:43:37;;;;;;;29.30;12.35;;;;;;;35.49;29.26;96857.03;5091016;28;20058;-79
2022/05/23 06:46:03;;;;;;;25.30;12.98;;;;;;;35.69;28.89;96837.69;5090992;28;20027;-81
2022/05/23 06:48:30;;;;;;;19.42;10.20;;;;;;;35.77;27.62;96828.84;5091238;28;20024;-81
2022/05/23 06:50:56;;;;;;;19.25;10.15;;;;;;;35.64;27.98;96836.81;5090977;28;20483;-82
2022/05/23 06:53:23;;;;;;;26.13;11.63;;;;;;;36.34;27.22;96825.09;5074349;28;20123;-82
2022/05/23 06:55:58;;;;;;;14.98;5.70;;;;;;;35.02;25.93;96811.63;5091740;28;20040;-82
2022/05/23 06:58:24;;;;;;;16.50;6.45;;;;;;;34.51;26.61;96816.78;5091285;28;20028;-81
2022/05/23 07:12:46;;;;;;;16.95;5.85;;;;;;;36.79;23.44;96805.66;5091173;28;20115;-82
2022/05/23 07:15:12;;;;;;;4.90;3.67;;;;;;;36.19;23.43;96802.78;5090945;28;20048;-82
2022/05/23 07:17:38;;;;;;;8.27;4.00;;;;;;;36.46;23.49;96813.69;5090747;28;20024;-82
2022/05/23 07:20:05;;;;;;;7.57;3.17;;;;;;;35.85;23.56;96807.97;5090720;28;20024;-82
2022/05/23 07:22:31;;;;;;;5.97;3.45;;;;;;;36.11;23.64;96794.97;5090796;28;20024;-82
2022/05/23 07:25:06;;;;;;;7.25;2.60;;;;;;;33.81;26.29;96796.59;5073128;28;20523;-83
2022/05/23 07:27:32;;;;;;;5.63;3.00;;;;;;;32.25;28.11;96812.47;5090759;28;20035;-82
2022/05/23 07:29:57;;;;;;;15.95;4.05;;;;;;;31.71;29.76;96818.59;5090709;28;20028;-82
2022/05/23 07:32:23;;;;;;;14.63;5.45;;;;;;;32.20;28.87;96821.53;5091192;28;20026;-82
2022/05/23 07:34:49;;;;;;;6.40;3.72;;;;;;;33.81;26.92;96813.25;5090410;28;20510;-81
2022/05/23 07:37:17;;;;;;;11.40;3.85;;;;;;;34.95;25.40;96811.06;5074467;28;20564;-83
2022/05/23 07:39:46;;;;;;;7.63;3.17;;;;;;;36.21;24.35;96814.53;5090429;28;20023;-83
2022/05/23 07:42:12;;;;;;;16.90;3.10;;;;;;;36.70;23.60;96812.09;5090332;28;20046;-83
2022/05/23 07:44:38;;;;;;;4.35;2.03;;;;;;;36.60;23.43;96806.50;5090213;28;20132;-83
2022/05/23 07:47:06;;;;;;;6.40;2.20;;;;;;;36.80;23.23;96815.69;5073481;28;20020;-83
2022/05/23 07:49:32;;;;;;;8.80;2.80;;;;;;;36.39;22.89;96806.44;5090094;28;20380;-81
2022/05/23 07:51:58;;;;;;;7.15;2.53;;;;;;;36.73;21.83;96797.59;5090682;28;20020;-83
2022/05/23 08:02:41;;;;;;;9.63;2.63;;;;;;;37.42;21.13;96797.78;5091609;28;20343;-82
2022/05/23 08:05:08;;;;;;;8.35;2.53;;;;;;;37.30;20.75;96797.25;5090173;28;20020;-83
2022/05/23 08:07:34;;;;;;;9.68;1.80;;;;;;;37.59;20.96;96798.31;5089834;28;20038;-82
2022/05/23 08:10:00;;;;;;;5.88;2.05;;;;;;;37.77;20.79;96783.72;5090242;28;20043;-83
2022/05/23 08:12:27;;;;;;;8.77;1.95;;;;;;;37.87;20.78;96786.44;5121420;27;20498;-83
2022/05/23 08:14:52;;;;;;;6.32;2.15;;;;;;;37.98;22.04;96782.50;5072841;28;20024;-83
2022/05/23 08:17:18;;;;;;;7.30;1.95;;;;;;;37.65;20.81;96794.38;5091400;28;20034;-82
2022/05/23 08:19:44;;;;;;;9.93;2.00;;;;;;;38.27;20.46;96779.00;5089846;28;20490;-82
2022/05/23 08:22:09;;;;;;;7.18;2.40;;;;;;;38.82;19.59;96780.56;5073200;28;20032;-82
2022/05/23 08:24:35;;;;;;;4.57;2.15;;;;;;;39.34;19.27;96793.78;5087068;28;20028;-82
2022/05/23 08:27:00;;;;;;;13.35;2.30;;;;;;;39.51;19.28;96771.75;5073307;28;20415;-82
2022/05/23 08:29:27;;;;;;;7.75;2.33;;;;;;;38.62;19.79;96777.91;5072995;28;20407;-82
2022/05/23 08:31:52;;;;;;;11.00;2.40;;;;;;;38.49;20.19;96771.84;5089644;28;20036;-82
2022/05/23 08:34:18;;;;;;;9.23;2.88;;;;;;;38.31;20.25;96775.31;5073092;28;20547;-82
2022/05/23 08:36:44;;;;;;;6.03;2.10;;;;;;;39.28;20.02;96775.38;5089652;28;20077;-82
2022/05/23 08:39:10;;;;;;;15.57;2.33;;;;;;;39.46;19.41;96778.25;5089648;28;20028;-82
2022/05/23 08:41:41;;;;;;;6.63;2.70;;;;;;;40.04;18.68;96772.47;5089372;28;20028;-81
2022/05/23 08:44:27;;;;;;;5.40;1.85;;;;;;;39.39;18.86;96772.16;5072620;28;20030;-82
2022/05/23 08:47:05;;;;;;;3.97;1.65;;;;;;;37.80;19.74;96760.78;5089594;28;20092;-81
2022/05/23 08:49:45;;;;;;;6.32;1.83;;;;;;;37.89;19.63;96759.06;5089662;28;20028;-81
2022/05/23 08:52:29;;;;;;;7.50;2.22;;;;;;;37.02;20.45;96764.38;5086883;28;20031;-81
2022/05/23 08:55:04;;;;;;;8.15;2.08;;;;;;;38.35;19.96;96759.66;5090055;28;20030;-83
2022/05/23 08:57:50;;;;;;;8.70;1.48;;;;;;;38.67;20.10;96766.69;5090829;28;20089;-81
2022/05/23 09:00:19;;;;;;;2.45;1.50;;;;;;;37.52;19.91;96757.84;5090648;28;20032;-81
2022/05/23 09:03:02;;;;;;;4.00;1.65;;;;;;;36.82;19.90;96756.88;5089857;28;20023;-81
2022/05/23 09:05:32;;;;;;;5.15;1.50;;;;;;;37.89;20.10;96764.66;5072608;28;20100;-81
2022/05/23 09:08:04;;;;;;;13.55;4.97;;;;;;;39.43;18.27;96753.66;5107172;28;20100;-81
2022/05/23 09:10:40;;;;;;;;;;;;;;;39.91;17.93;96759.22;5089438;28;20024;-82
2022/05/23 09:13:07;;;;;;;4.85;1.80;;;;;;;39.17;18.72;96740.19;5089039;28;19911;-82
2022/05/23 09:15:33;;;;;;;7.38;3.00;;;;;;;39.28;18.02;96739.81;5089389;28;20097;-82
2022/05/23 09:18:03;;;;;;;7.97;4.60;;;;;;;40.14;17.99;96746.31;5089289;28;20459;-81
2022/05/23 09:20:41;;;;;;;7.95;2.50;;;;;;;41.02;16.92;96744.31;5072342;28;20067;-82
2022/05/23 09:23:21;;;;;;;12.82;2.63;;;;;;;40.28;18.00;96736.81;5089311;28;20024;-81
2022/05/23 09:25:50;;;;;;;4.80;1.42;;;;;;;40.20;16.90;96729.09;5093279;28;20403;-83
2022/05/23 09:28:19;;;;;;;8.80;2.40;;;;;;;40.43;17.59;96741.34;5092972;28;20115;-84
2022/05/23 09:30:47;;;;;;;4.07;1.35;;;;;;;39.46;17.54;96727.84;5093157;28;20379;-83
2022/05/23 09:33:15;;;;;;;6.15;2.83;;;;;;;39.74;17.31;96726.09;5092972;28;20031;-83
2022/05/23 09:36:07;;;;;;;5.25;2.97;;;;;;;40.16;17.67;96733.66;5092933;28;20020;-84
2022/05/23 09:38:52;;;;;;;5.25;2.00;;;;;;;40.30;17.53;96722.50;5094360;28;20035;-84
2022/05/23 09:47:44;;;;;;;12.98;3.72;;;;;;;40.29;17.44;96723.66;5076117;28;20468;-83
2022/05/23 09:47:46;;;;;;;11.52;4.82;;;;;;;40.61;17.38;96714.47;5093850;28;20046;-83
2022/05/23 09:50:14;;;;;;;9.48;4.00;;;;;;;40.58;17.25;96716.72;5094474;28;20043;-83
2022/05/23 09:52:48;;;;;;;15.40;7.50;;;;;;;40.51;17.04;96712.63;5092419;28;20030;-84
2022/05/23 09:55:23;;;;;;;9.02;3.55;;;;;;;40.06;17.66;96712.16;5075804;28;20118;-85
2022/05/23 09:58:21;;;;;;;9.63;5.15;;;;;;;39.95;17.42;96715.44;5093961;28;20027;-84
2022/05/23 10:01:02;;;;;;;19.50;2.65;;;;;;;39.78;17.06;96693.53;5085205;28;20089;-82
2022/05/23 10:03:30;;;;;;;13.52;3.60;;;;;;;40.24;17.62;96706.91;5075557;28;20487;-83
2022/05/23 10:07:06;;;;;;;15.15;1.90;;;;;;;39.06;18.25;96705.88;5092012;28;20473;-83
2022/05/23 10:09:37;;;;;;;6.85;1.80;;;;;;;38.80;18.22;96708.13;5085945;28;20361;-83
2022/05/23 10:12:08;;;;;;;9.32;3.28;;;;;;;38.32;18.52;96704.31;5093542;28;20132;-82
2022/05/23 10:15:14;;;;;;;3.97;2.20;;;;;;;37.77;19.34;96711.09;5092786;28;20035;-83
2022/05/23 10:17:41;;;;;;;10.20;2.95;;;;;;;36.23;20.39;96704.47;5092280;28;20089;-83
2022/05/23 10:20:27;;;;;;;9.98;2.67;;;;;;;37.18;19.82;96704.63;5091943;28;20056;-82
2022/05/23 10:23:07;;;;;;;7.57;1.60;;;;;;;37.72;19.76;96699.94;5092092;28;20471;-83
2022/05/23 10:25:50;;;;;;;1.75;1.17;;;;;;;37.83;18.59;96684.81;5091975;28;20099;-82
2022/05/23 10:28:27;;;;;;;3.50;1.40;;;;;;;38.43;18.79;96700.31;5074767;28;20407;-84
2022/05/23 10:31:04;;;;;;;1.90;1.33;;;;;;;37.50;19.13;96685.56;5075148;28;20051;-83
2022/05/23 10:33:31;;;;;;;9.32;1.50;;;;;;;36.77;19.57;96689.94;5091724;28;20027;-82
2022/05/23 10:36:04;;;;;;;1.70;1.40;;;;;;;36.80;20.08;96690.22;5091422;28;20035;-83
2022/05/23 10:44:24;;;;;;;3.72;1.88;;;;;;;40.50;17.14;96686.53;5093335;28;20411;-83
2022/05/23 10:47:24;;;;;;;4.03;1.48;;;;;;;40.47;17.22;96675.09;5086677;28;20043;-81
2022/05/23 10:49:57;;;;;;;16.58;3.72;;;;;;;40.29;17.54;96681.59;5092316;28;20495;-83
2022/05/23 10:52:34;;;;;;;9.90;2.67;;;;;;;40.86;16.90;96675.53;5092551;28;20028;-83
2022/05/23 10:55:12;;;;;;;3.38;2.15;;;;;;;41.02;16.57;96668.50;5093032;28;20028;-84
2022/05/23 10:58:16;;;;;;;2.70;1.73;;;;;;;41.01;16.66;96669.66;5074291;28;20028;-83
2022/05/23 11:00:51;;;;;;;8.25;2.28;;;;;;;42.48;15.71;96666.41;5073460;28;20411;-84
2022/05/23 11:03:34;;;;;;;2.58;1.42;;;;;;;41.64;16.23;96663.31;5088772;28;20047;-83
2022/05/23 11:06:24;;;;;;;11.48;1.60;;;;;;;39.56;17.31;96646.47;5091049;28;20043;-83
2022/05/23 11:09:01;;;;;;;2.88;1.33;;;;;;;40.04;17.27;96650.00;5091431;28;20039;-83
2022/05/23 11:11:54;;;;;;;6.40;1.48;;;;;;;40.16;16.90;96655.16;5091198;28;20526;-83
2022/05/23 11:14:34;;;;;;;6.18;2.00;;;;;;;40.33;16.91;96660.22;5092491;28;20031;-83
2022/05/23 11:17:27;;;;;;;2.15;1.15;;;;;;;40.50;16.59;96649.25;5091601;28;20031;-83
2022/05/23 11:20:10;;;;;;;2.38;1.30;;;;;;;36.94;18.97;96635.50;5090656;28;20027;-82
2022/05/23 11:22:58;;;;;;;12.18;1.80;;;;;;;35.63;20.75;96637.50;5090485;28;20027;-82
2022/05/23 11:25:29;;;;;;;4.57;1.50;;;;;;;36.64;18.95;96638.38;5091567;28;20040;-82
2022/05/23 11:33:45;;;;;;;4.63;1.10;;;;;;;34.41;19.91;96636.09;5090953;28;20038;-81
2022/05/23 11:36:14;;;;;;;;;;;;;;;34.37;20.44;96646.06;5091350;28;20024;-81
2022/05/23 11:38:45;;;;;;;5.45;2.58;;;;;;;35.35;20.67;96645.22;5090414;28;19969;-81
2022/05/23 11:41:27;;;;;;;8.05;1.70;;;;;;;35.47;19.42;96633.84;5090223;28;20038;-85
2022/05/23 11:43:53;;;;;;;32.67;2.55;;;;;;;35.75;20.03;96633.34;5073577;28;20380;-82
2022/05/23 11:47:08;;;;;;;10.82;1.50;;;;;;;35.98;19.73;96634.78;5090224;28;20039;-81
2022/05/23 11:49:45;;;;;;;8.32;1.80;;;;;;;37.37;18.91;96633.97;5089380;28;20069;-83
2022/05/23 11:52:23;;;;;;;11.35;1.33;;;;;;;38.34;17.98;96636.91;5090104;28;20032;-83
2022/05/23 11:54:48;;;;;;;11.38;2.20;;;;;;;38.31;18.44;96638.34;5090081;28;20024;-82
2022/05/23 11:57:35;;;;;;;5.50;1.25;;;;;;;37.20;18.31;96625.09;5090288;28;20124;-82
2022/05/23 12:00:06;;;;;;;9.75;1.95;;;;;;;37.81;17.99;96633.16;5073678;28;20085;-82
2022/05/23 12:02:37;;;;;;;3.72;1.50;;;;;;;37.11;18.28;96637.13;5090108;28;20530;-82
2022/05/23 12:05:02;;;;;;;12.60;1.60;;;;;;;37.71;17.91;96624.84;5106924;28;20047;-81
2022/05/23 12:07:31;;;;;;;4.85;1.55;;;;;;;38.12;17.67;96633.78;5090078;28;20074;-82
2022/05/23 12:10:14;;;;;;;7.95;1.40;;;;;;;37.95;17.88;96621.06;5089999;28;20113;-82
2022/05/23 12:12:48;;;;;;;14.05;1.67;;;;;;;38.66;17.30;96631.59;5091648;28;20107;-82
2022/05/23 12:15:44;;;;;;;9.82;1.33;;;;;;;38.74;17.58;96630.94;5089882;28;20090;-82
2022/05/23 12:18:22;;;;;;;7.97;1.58;;;;;;;38.37;17.50;96625.19;5089632;28;20471;-82
2022/05/23 12:20:51;;;;;;;17.23;1.80;;;;;;;38.22;17.65;96619.69;5089611;28;20088;-82
2022/05/23 12:23:39;;;;;;;7.57;2.13;;;;;;;38.76;17.43;96622.28;5089928;28;20122;-83
2022/05/23 12:26:31;;;;;;;13.13;1.50;;;;;;;37.44;17.90;96600.13;5073043;28;20039;-82
2022/05/23 12:29:00;;;;;;;14.85;1.60;;;;;;;36.98;18.79;96619.03;5073789;28;20491;-82
2022/05/23 12:31:30;;;;;;;2.70;1.45;;;;;;;36.03;19.55;96615.28;5089400;28;20100;-81
2022/05/23 12:34:02;;;;;;;3.92;1.70;;;;;;;36.77;18.83;96609.91;5089648;28;20020;-82
2022/05/23 12:36:32;;;;;;;2.90;1.63;;;;;;;36.26;19.42;96608.34;5089482;28;20403;-82
2022/05/23 12:39:16;;;;;;;8.95;1.80;;;;;;;36.01;19.47;96611.94;5106695;28;20080;-82
2022/05/23 12:41:50;;;;;;;3.60;1.75;;;;;;;36.16;20.09;96616.69;5084024;28;20470;-82
2022/05/23 12:44:28;;;;;;;5.63;1.58;;;;;;;37.02;19.08;96605.38;5090826;28;20056;-81